createdAt,value
2022-10-05T00:00:38.829Z,0.00
2022-10-05T00:01:38.823Z,0.00
2022-10-05T00:02:38.766Z,0.00
2022-10-05T00:03:38.812Z,0.00
2022-10-05T00:04:38.767Z,0.00
2022-10-05T00:05:38.738Z,0.00
2022-10-05T00:06:38.723Z,0.00
2022-10-05T00:07:38.710Z,0.00
2022-10-05T00:08:38.696Z,0.00
2022-10-05T00:09:38.708Z,0.00
2022-10-05T00:10:38.697Z,0.00
2022-10-05T00:11:38.659Z,0.00
2022-10-05T00:12:38.646Z,0.00
2022-10-05T00:13:38.648Z,0.00
2022-10-05T00:14:38.677Z,0.00
2022-10-05T00:15:38.615Z,0.00
2022-10-05T00:16:38.644Z,0.00
2022-10-05T00:17:38.596Z,0.00
2022-10-05T00:18:38.601Z,0.00
2022-10-05T00:19:38.582Z,0.00
2022-10-05T00:20:38.547Z,0.00
2022-10-05T00:21:38.545Z,0.00
2022-10-05T00:22:38.515Z,0.00
2022-10-05T00:23:38.503Z,0.00
2022-10-05T00:24:38.515Z,0.00
2022-10-05T00:25:38.512Z,0.00
2022-10-05T00:26:38.483Z,0.00
2022-10-05T00:27:38.454Z,0.00
2022-10-05T00:28:38.562Z,0.00
2022-10-05T00:29:38.483Z,0.00
2022-10-05T00:30:38.443Z,0.00
2022-10-05T00:31:38.511Z,0.00
2022-10-05T00:32:38.414Z,0.00
2022-10-05T00:33:38.397Z,0.00
2022-10-05T00:34:38.402Z,0.00
2022-10-05T00:35:38.417Z,0.00
2022-10-05T00:36:38.366Z,0.00
2022-10-05T00:37:38.352Z,0.00
2022-10-05T00:38:38.364Z,0.00
2022-10-05T00:39:38.330Z,0.00
2022-10-05T00:40:38.342Z,0.00
2022-10-05T00:41:38.317Z,0.00
2022-10-05T00:42:38.285Z,0.00
2022-10-05T00:43:38.276Z,0.00
2022-10-05T00:44:38.276Z,0.00
2022-10-05T00:45:38.279Z,0.00
2022-10-05T00:46:38.267Z,0.00
2022-10-05T00:47:38.223Z,0.00
2022-10-05T00:48:38.227Z,0.00
2022-10-05T00:49:38.202Z,0.00
2022-10-05T00:50:38.255Z,0.00
2022-10-05T00:51:38.230Z,0.00
2022-10-05T00:52:38.237Z,0.00
2022-10-05T00:53:38.166Z,0.00
2022-10-05T00:54:38.195Z,0.00
2022-10-05T00:55:38.156Z,0.00
2022-10-05T00:56:38.182Z,0.00
2022-10-05T00:57:38.153Z,0.00
2022-10-05T00:58:38.098Z,0.00
2022-10-05T00:59:38.081Z,0.00
2022-10-05T01:00:38.097Z,0.00
2022-10-05T01:01:38.100Z,0.00
2022-10-05T01:02:38.142Z,0.00
2022-10-05T01:03:38.057Z,0.00
2022-10-05T01:04:38.041Z,0.00
2022-10-05T01:05:38.018Z,0.00
2022-10-05T01:06:38.011Z,0.00
2022-10-05T01:07:38.049Z,0.00
2022-10-05T01:08:38.020Z,0.00
2022-10-05T01:09:37.970Z,0.00
2022-10-05T01:10:37.967Z,0.00
2022-10-05T01:11:37.948Z,0.00
2022-10-05T01:12:37.967Z,0.00
2022-10-05T01:13:37.932Z,0.00
2022-10-05T01:14:37.914Z,0.00
2022-10-05T01:15:37.903Z,0.00
2022-10-05T01:16:37.945Z,0.00
2022-10-05T01:17:37.909Z,0.00
2022-10-05T01:18:37.911Z,0.00
2022-10-05T01:19:37.870Z,0.00
2022-10-05T01:20:37.858Z,0.00
2022-10-05T01:21:37.830Z,0.00
2022-10-05T01:22:37.816Z,0.00
2022-10-05T01:23:37.807Z,0.00
2022-10-05T01:24:37.832Z,0.00
2022-10-05T01:25:37.796Z,0.00
2022-10-05T01:26:37.802Z,0.00
2022-10-05T01:27:37.774Z,0.00
2022-10-05T01:28:37.863Z,0.00
2022-10-05T01:29:37.742Z,0.00
2022-10-05T01:30:37.781Z,0.00
2022-10-05T01:31:37.744Z,0.00
2022-10-05T01:32:37.722Z,0.00
2022-10-05T01:33:37.712Z,0.00
2022-10-05T01:34:37.705Z,0.00
2022-10-05T01:35:37.725Z,0.00
2022-10-05T01:36:37.711Z,0.00
2022-10-05T01:37:37.652Z,0.00
2022-10-05T01:38:37.673Z,0.00
2022-10-05T01:39:37.645Z,0.00
2022-10-05T01:40:37.678Z,0.00
2022-10-05T01:41:37.626Z,0.00
2022-10-05T01:42:37.606Z,0.00
2022-10-05T01:43:37.604Z,0.00
2022-10-05T01:44:37.592Z,0.00
2022-10-05T01:45:37.631Z,0.00
2022-10-05T01:46:37.563Z,0.00
2022-10-05T01:47:37.563Z,0.00
2022-10-05T01:48:37.540Z,0.00
2022-10-05T01:49:37.519Z,0.00
2022-10-05T01:50:37.537Z,0.00
2022-10-05T01:51:37.513Z,0.00
2022-10-05T01:52:37.479Z,0.00
2022-10-05T01:53:37.471Z,0.00
2022-10-05T01:54:37.469Z,0.00
2022-10-05T01:55:37.442Z,0.00
2022-10-05T01:56:37.731Z,0.00
2022-10-05T01:57:37.450Z,0.00
2022-10-05T01:58:37.404Z,0.00
2022-10-05T01:59:37.405Z,0.00
2022-10-05T02:00:37.454Z,0.00
2022-10-05T02:01:37.441Z,0.00
2022-10-05T02:02:37.454Z,0.00
2022-10-05T02:03:37.371Z,0.00
2022-10-05T02:05:01.107Z,0.00
2022-10-05T02:05:38.337Z,0.00
2022-10-05T02:06:37.331Z,0.00
2022-10-05T02:07:37.304Z,0.00
2022-10-05T02:08:37.298Z,0.00
2022-10-05T02:09:37.283Z,0.00
2022-10-05T02:10:37.285Z,0.00
2022-10-05T02:11:37.263Z,0.00
2022-10-05T02:12:37.244Z,0.00
2022-10-05T02:13:37.246Z,0.00
2022-10-05T02:14:37.234Z,0.00
2022-10-05T02:15:37.283Z,0.00
2022-10-05T02:16:37.233Z,0.00
2022-10-05T02:17:37.201Z,0.00
2022-10-05T02:18:37.193Z,0.00
2022-10-05T02:19:37.174Z,0.00
2022-10-05T02:20:37.158Z,0.00
2022-10-05T02:21:37.154Z,0.00
2022-10-05T02:22:37.140Z,0.00
2022-10-05T02:23:37.125Z,0.00
2022-10-05T02:24:37.126Z,0.00
2022-10-05T02:25:37.105Z,0.00
2022-10-05T02:26:37.144Z,0.00
2022-10-05T02:27:37.093Z,0.00
2022-10-05T02:28:37.108Z,0.00
2022-10-05T02:29:37.066Z,0.00
2022-10-05T02:30:37.045Z,0.00
2022-10-05T02:31:37.069Z,0.00
2022-10-05T02:32:37.057Z,0.00
2022-10-05T02:33:37.029Z,0.00
2022-10-05T02:34:36.998Z,0.00
2022-10-05T02:35:36.978Z,0.00
2022-10-05T02:36:36.996Z,0.00
2022-10-05T02:37:36.965Z,0.00
2022-10-05T02:38:36.943Z,0.00
2022-10-05T02:39:36.944Z,0.00
2022-10-05T02:40:36.937Z,0.00
2022-10-05T02:41:36.916Z,0.00
2022-10-05T02:42:36.946Z,0.00
2022-10-05T02:43:36.889Z,0.00
2022-10-05T02:44:36.874Z,0.00
2022-10-05T02:45:36.917Z,0.00
2022-10-05T02:46:36.874Z,0.00
2022-10-05T02:47:36.871Z,0.00
2022-10-05T02:48:36.851Z,0.00
2022-10-05T02:49:36.861Z,0.00
2022-10-05T02:50:36.838Z,0.00
2022-10-05T02:51:36.797Z,0.00
2022-10-05T02:52:36.825Z,0.00
2022-10-05T02:53:36.766Z,0.00
2022-10-05T02:54:36.795Z,0.00
2022-10-05T02:55:36.807Z,0.00
2022-10-05T02:56:36.756Z,0.00
2022-10-05T02:57:36.767Z,0.00
2022-10-05T02:58:36.749Z,0.00
2022-10-05T02:59:36.717Z,0.00
2022-10-05T03:00:36.723Z,0.00
2022-10-05T03:01:36.787Z,0.00
2022-10-05T03:02:36.688Z,0.00
2022-10-05T03:03:36.660Z,0.00
2022-10-05T03:04:36.655Z,0.00
2022-10-05T03:05:36.638Z,0.00
2022-10-05T03:06:36.616Z,0.00
2022-10-05T03:07:36.655Z,0.00
2022-10-05T03:08:36.627Z,0.00
2022-10-05T03:09:36.608Z,0.00
2022-10-05T03:10:36.590Z,0.00
2022-10-05T03:11:36.601Z,0.00
2022-10-05T03:12:36.614Z,0.00
2022-10-05T03:13:36.559Z,0.00
2022-10-05T03:14:36.547Z,0.00
2022-10-05T03:15:36.833Z,0.00
2022-10-05T03:16:36.512Z,0.00
2022-10-05T03:17:36.499Z,0.00
2022-10-05T03:18:36.544Z,0.00
2022-10-05T03:19:36.477Z,0.00
2022-10-05T03:20:36.462Z,0.00
2022-10-05T03:21:36.461Z,0.00
2022-10-05T03:22:36.438Z,0.00
2022-10-05T03:23:36.440Z,0.00
2022-10-05T03:24:36.440Z,0.00
2022-10-05T03:25:36.489Z,0.00
2022-10-05T03:26:36.404Z,0.00
2022-10-05T03:27:36.379Z,0.00
2022-10-05T03:28:36.448Z,0.00
2022-10-05T03:29:36.360Z,0.00
2022-10-05T03:30:36.383Z,0.00
2022-10-05T03:31:36.371Z,0.00
2022-10-05T03:32:36.329Z,0.00
2022-10-05T03:33:36.335Z,0.00
2022-10-05T03:34:36.349Z,0.00
2022-10-05T03:35:36.303Z,0.00
2022-10-05T03:36:36.317Z,0.00
2022-10-05T03:37:36.291Z,0.00
2022-10-05T03:38:36.268Z,0.00
2022-10-05T03:39:36.260Z,0.00
2022-10-05T03:40:36.243Z,0.00
2022-10-05T03:41:36.306Z,0.00
2022-10-05T03:42:36.217Z,0.00
2022-10-05T03:43:36.211Z,0.00
2022-10-05T03:44:36.242Z,0.00
2022-10-05T03:45:36.214Z,0.00
2022-10-05T03:46:36.256Z,0.00
2022-10-05T03:47:36.160Z,0.00
2022-10-05T03:48:36.142Z,0.00
2022-10-05T03:49:36.142Z,0.00
2022-10-05T03:50:36.147Z,0.00
2022-10-05T03:51:36.102Z,0.00
2022-10-05T03:52:36.108Z,0.00
2022-10-05T03:53:36.092Z,0.00
2022-10-05T03:54:36.110Z,0.00
2022-10-05T03:55:36.103Z,0.00
2022-10-05T03:56:36.062Z,0.00
2022-10-05T03:57:36.100Z,0.00
2022-10-05T03:58:36.040Z,0.00
2022-10-05T03:59:36.040Z,0.00
2022-10-05T04:00:36.060Z,0.00
2022-10-05T04:01:36.070Z,0.00
2022-10-05T04:02:36.093Z,0.00
2022-10-05T04:03:35.990Z,0.00
2022-10-05T04:04:35.996Z,0.00
2022-10-05T04:05:35.990Z,0.00
2022-10-05T04:06:35.953Z,0.00
2022-10-05T04:07:35.951Z,0.00
2022-10-05T04:08:35.909Z,0.00
2022-10-05T04:09:35.913Z,0.00
2022-10-05T04:10:35.905Z,0.00
2022-10-05T04:11:35.925Z,0.00
2022-10-05T04:12:35.887Z,0.00
2022-10-05T04:13:35.902Z,0.00
2022-10-05T04:14:35.863Z,0.00
2022-10-05T04:15:35.879Z,0.00
2022-10-05T04:16:35.853Z,0.00
2022-10-05T04:17:35.845Z,0.00
2022-10-05T04:18:35.827Z,0.00
2022-10-05T04:19:35.787Z,0.00
2022-10-05T04:20:35.803Z,0.00
2022-10-05T04:21:35.805Z,0.00
2022-10-05T04:22:35.764Z,0.00
2022-10-05T04:23:35.786Z,0.00
2022-10-05T04:24:35.772Z,0.00
2022-10-05T04:25:35.734Z,0.00
2022-10-05T04:26:35.734Z,0.00
2022-10-05T04:27:35.722Z,0.00
2022-10-05T04:28:35.774Z,0.00
2022-10-05T04:29:35.674Z,0.00
2022-10-05T04:30:35.680Z,0.00
2022-10-05T04:31:35.748Z,0.00
2022-10-05T04:32:35.660Z,0.00
2022-10-05T04:33:35.654Z,0.00
2022-10-05T04:34:35.630Z,0.00
2022-10-05T04:35:35.634Z,0.00
2022-10-05T04:36:35.617Z,0.00
2022-10-05T04:37:35.627Z,0.00
2022-10-05T04:38:35.575Z,0.00
2022-10-05T04:39:35.561Z,0.00
2022-10-05T04:40:35.572Z,0.00
2022-10-05T04:41:35.577Z,0.00
2022-10-05T04:42:35.562Z,0.00
2022-10-05T04:43:35.546Z,0.00
2022-10-05T04:44:35.513Z,0.00
2022-10-05T04:45:35.515Z,0.00
2022-10-05T04:46:35.607Z,0.00
2022-10-05T04:47:35.475Z,0.00
2022-10-05T04:48:35.464Z,0.00
2022-10-05T04:49:35.465Z,0.00
2022-10-05T04:50:35.461Z,0.00
2022-10-05T04:51:35.445Z,0.00
2022-10-05T04:52:35.445Z,0.00
2022-10-05T04:53:35.426Z,0.00
2022-10-05T04:54:35.401Z,0.00
2022-10-05T04:55:35.415Z,0.00
2022-10-05T04:56:35.408Z,0.00
2022-10-05T04:57:35.404Z,0.00
2022-10-05T04:58:40.033Z,0.00
2022-10-05T04:59:36.365Z,0.00
2022-10-05T05:00:35.376Z,0.00
2022-10-05T05:01:35.319Z,0.00
2022-10-05T05:02:35.327Z,0.00
2022-10-05T05:03:35.346Z,0.00
2022-10-05T05:04:35.286Z,0.00
2022-10-05T05:05:35.276Z,0.00
2022-10-05T05:06:35.285Z,0.00
2022-10-05T05:07:35.258Z,0.00
2022-10-05T05:08:35.271Z,0.00
2022-10-05T05:09:35.251Z,0.00
2022-10-05T05:10:35.217Z,0.00
2022-10-05T05:11:35.206Z,0.00
2022-10-05T05:12:35.214Z,0.00
2022-10-05T05:13:35.210Z,4.00
2022-10-05T05:14:35.207Z,0.00
2022-10-05T05:15:35.190Z,0.00
2022-10-05T05:16:35.198Z,4.00
2022-10-05T05:17:35.152Z,0.00
2022-10-05T05:18:35.139Z,4.00
2022-10-05T05:19:35.126Z,4.00
2022-10-05T05:20:35.127Z,4.00
2022-10-05T05:21:35.108Z,8.00
2022-10-05T05:22:35.112Z,8.00
2022-10-05T05:23:35.086Z,12.00
2022-10-05T05:24:35.071Z,8.00
2022-10-05T05:25:35.132Z,12.00
2022-10-05T05:26:38.882Z,12.00
2022-10-05T05:27:35.018Z,16.00
2022-10-05T05:28:35.080Z,16.00
2022-10-05T05:29:35.010Z,20.00
2022-10-05T05:30:34.987Z,24.00
2022-10-05T05:31:35.069Z,24.00
2022-10-05T05:32:34.995Z,24.00
2022-10-05T05:33:34.966Z,28.00
2022-10-05T05:34:34.963Z,32.00
2022-10-05T05:35:34.957Z,28.00
2022-10-05T05:36:34.971Z,40.00
2022-10-05T05:37:34.928Z,48.00
2022-10-05T05:38:34.904Z,48.00
2022-10-05T05:39:34.900Z,52.00
2022-10-05T05:40:34.878Z,52.00
2022-10-05T05:41:34.899Z,56.00
2022-10-05T05:42:34.861Z,52.00
2022-10-05T05:43:34.849Z,52.00
2022-10-05T05:44:38.537Z,60.00
2022-10-05T05:45:34.849Z,68.00
2022-10-05T05:47:01.801Z,68.00
2022-10-05T05:47:35.822Z,64.00
2022-10-05T05:48:34.858Z,68.00
2022-10-05T05:49:34.829Z,80.00
2022-10-05T05:50:34.775Z,80.00
2022-10-05T05:51:34.781Z,92.00
2022-10-05T05:52:34.750Z,92.00
2022-10-05T05:53:34.743Z,100.00
2022-10-05T05:54:34.759Z,120.00
2022-10-05T05:55:34.734Z,140.00
2022-10-05T05:56:34.789Z,164.00
2022-10-05T05:57:34.730Z,172.00
2022-10-05T05:58:34.690Z,196.00
2022-10-05T05:59:34.681Z,192.00
2022-10-05T06:00:34.670Z,180.00
2022-10-05T06:01:34.692Z,176.00
2022-10-05T06:02:34.786Z,156.00
2022-10-05T06:03:34.637Z,132.00
2022-10-05T06:04:34.619Z,136.00
2022-10-05T06:05:34.608Z,152.00
2022-10-05T06:06:34.621Z,160.00
2022-10-05T06:07:34.616Z,160.00
2022-10-05T06:08:34.625Z,208.00
2022-10-05T06:09:34.566Z,240.00
2022-10-05T06:10:34.560Z,260.00
2022-10-05T06:11:34.541Z,304.00
2022-10-05T06:12:34.530Z,324.00
2022-10-05T06:13:34.578Z,340.00
2022-10-05T06:14:34.512Z,352.00
2022-10-05T06:15:34.503Z,352.00
2022-10-05T06:16:34.545Z,372.00
2022-10-05T06:17:34.505Z,412.00
2022-10-05T06:18:34.497Z,388.00
2022-10-05T06:19:34.452Z,380.00
2022-10-05T06:20:34.444Z,420.00
2022-10-05T06:21:34.430Z,484.00
2022-10-05T06:22:34.420Z,444.00
2022-10-05T06:23:34.432Z,520.00
2022-10-05T06:24:34.413Z,568.00
2022-10-05T06:25:34.382Z,556.00
2022-10-05T06:26:34.414Z,532.00
2022-10-05T06:27:34.374Z,576.00
2022-10-05T06:28:34.425Z,664.00
2022-10-05T06:29:34.375Z,592.00
2022-10-05T06:30:34.320Z,600.00
2022-10-05T06:31:34.401Z,816.00
2022-10-05T06:32:34.310Z,900.00
2022-10-05T06:33:34.284Z,876.00
2022-10-05T06:34:34.303Z,944.00
2022-10-05T06:35:34.292Z,1084.00
2022-10-05T06:36:34.263Z,1020.00
2022-10-05T06:37:34.262Z,988.00
2022-10-05T06:38:34.235Z,1132.00
2022-10-05T06:39:34.223Z,1196.00
2022-10-05T06:40:34.231Z,1228.00
2022-10-05T06:41:34.204Z,1148.00
2022-10-05T06:42:34.175Z,1256.00
2022-10-05T06:43:34.174Z,1404.00
2022-10-05T06:44:34.180Z,1444.00
2022-10-05T06:45:34.285Z,1640.00
2022-10-05T06:46:34.139Z,1600.00
2022-10-05T06:47:34.142Z,1500.00
2022-10-05T06:48:34.132Z,1640.00
2022-10-05T06:49:34.094Z,1544.00
2022-10-05T06:50:34.126Z,1628.00
2022-10-05T06:51:34.111Z,1528.00
2022-10-05T06:52:34.093Z,1720.00
2022-10-05T06:53:34.056Z,1780.00
2022-10-05T06:54:34.075Z,1940.00
2022-10-05T06:55:34.038Z,2104.00
2022-10-05T06:56:34.046Z,1292.00
2022-10-05T06:57:33.994Z,1380.00
2022-10-05T06:58:33.999Z,1188.00
2022-10-05T06:59:33.968Z,1052.00
2022-10-05T07:00:33.972Z,964.00
2022-10-05T07:01:34.040Z,1076.00
2022-10-05T07:02:34.010Z,1112.00
2022-10-05T07:03:33.926Z,1020.00
2022-10-05T07:04:36.981Z,1176.00
2022-10-05T07:05:33.916Z,1752.00
2022-10-05T07:06:33.925Z,4400.00
2022-10-05T07:07:33.906Z,4076.00
2022-10-05T07:08:33.891Z,2180.00
2022-10-05T07:09:33.875Z,2776.00
2022-10-05T07:10:33.879Z,3136.00
2022-10-05T07:11:33.851Z,3136.00
2022-10-05T07:12:33.862Z,2040.00
2022-10-05T07:13:33.816Z,3716.00
2022-10-05T07:14:33.818Z,1720.00
2022-10-05T07:15:33.793Z,1532.00
2022-10-05T07:16:33.888Z,1600.00
2022-10-05T07:17:33.790Z,1476.00
2022-10-05T07:18:33.791Z,1228.00
2022-10-05T07:19:33.809Z,1092.00
2022-10-05T07:20:33.759Z,1172.00
2022-10-05T07:21:33.723Z,1148.00
2022-10-05T07:22:34.495Z,1124.00
2022-10-05T07:23:33.747Z,1188.00
2022-10-05T07:24:33.723Z,1268.00
2022-10-05T07:25:33.687Z,1216.00
2022-10-05T07:26:33.713Z,1160.00
2022-10-05T07:27:33.785Z,1148.00
2022-10-05T07:28:33.709Z,1104.00
2022-10-05T07:29:33.667Z,1164.00
2022-10-05T07:30:33.667Z,1300.00
2022-10-05T07:31:33.621Z,1288.00
2022-10-05T07:32:33.607Z,1324.00
2022-10-05T07:33:33.583Z,1288.00
2022-10-05T07:34:33.609Z,1284.00
2022-10-05T07:35:33.584Z,1316.00
2022-10-05T07:36:33.584Z,1232.00
2022-10-05T07:37:33.550Z,1140.00
2022-10-05T07:38:33.551Z,1028.00
2022-10-05T07:39:58.433Z,1108.00
2022-10-05T07:40:34.526Z,1108.00
2022-10-05T07:41:33.511Z,1056.00
2022-10-05T07:42:33.497Z,1116.00
2022-10-05T07:43:57.474Z,1144.00
2022-10-05T07:44:34.491Z,1204.00
2022-10-05T07:45:33.522Z,1220.00
2022-10-05T07:46:33.442Z,1292.00
2022-10-05T07:47:33.431Z,1348.00
2022-10-05T07:48:33.424Z,1468.00
2022-10-05T07:49:33.428Z,1596.00
2022-10-05T07:50:33.513Z,1596.00
2022-10-05T07:51:33.387Z,1488.00
2022-10-05T07:52:34.880Z,1424.00
2022-10-05T07:53:33.370Z,1360.00
2022-10-05T07:54:33.352Z,1368.00
2022-10-05T07:55:33.341Z,1448.00
2022-10-05T07:56:33.389Z,1652.00
2022-10-05T07:57:33.321Z,1576.00
2022-10-05T07:58:33.324Z,1620.00
2022-10-05T07:59:33.307Z,1704.00
2022-10-05T08:00:33.271Z,1640.00
2022-10-05T08:01:33.353Z,1528.00
2022-10-05T08:02:33.404Z,1496.00
2022-10-05T08:03:33.245Z,1568.00
2022-10-05T08:04:35.198Z,1536.00
2022-10-05T08:05:33.229Z,1436.00
2022-10-05T08:06:33.211Z,1452.00
2022-10-05T08:07:33.212Z,1436.00
2022-10-05T08:08:33.188Z,1416.00
2022-10-05T08:09:33.190Z,1404.00
2022-10-05T08:10:33.162Z,1364.00
2022-10-05T08:11:33.155Z,1416.00
2022-10-05T08:12:33.154Z,1564.00
2022-10-05T08:13:33.153Z,1468.00
2022-10-05T08:14:33.122Z,1424.00
2022-10-05T08:15:33.202Z,1336.00
2022-10-05T08:16:33.093Z,1472.00
2022-10-05T08:17:33.071Z,1456.00
2022-10-05T08:18:33.151Z,1612.00
2022-10-05T08:19:33.089Z,1700.00
2022-10-05T08:20:33.068Z,1468.00
2022-10-05T08:21:33.040Z,1440.00
2022-10-05T08:22:33.022Z,1580.00
2022-10-05T08:23:33.034Z,1416.00
2022-10-05T08:24:33.007Z,1464.00
2022-10-05T08:25:33.043Z,1544.00
2022-10-05T08:26:33.007Z,1552.00
2022-10-05T08:27:32.951Z,1336.00
2022-10-05T08:28:33.018Z,1248.00
2022-10-05T08:29:32.986Z,1228.00
2022-10-05T08:30:32.934Z,1240.00
2022-10-05T08:31:33.010Z,1436.00
2022-10-05T08:32:32.929Z,1444.00
2022-10-05T08:33:32.904Z,1408.00
2022-10-05T08:34:32.906Z,1452.00
2022-10-05T08:35:32.874Z,1600.00
2022-10-05T08:36:32.877Z,1668.00
2022-10-05T08:37:32.870Z,2384.00
2022-10-05T08:38:32.842Z,2036.00
2022-10-05T08:39:32.827Z,2636.00
2022-10-05T08:40:32.854Z,1732.00
2022-10-05T08:41:32.833Z,2640.00
2022-10-05T08:42:32.795Z,1724.00
2022-10-05T08:43:35.343Z,1540.00
2022-10-05T08:44:32.777Z,2388.00
2022-10-05T08:45:32.779Z,2492.00
2022-10-05T08:46:32.891Z,1964.00
2022-10-05T08:47:32.739Z,2020.00
2022-10-05T08:48:32.750Z,1396.00
2022-10-05T08:49:35.179Z,1480.00
2022-10-05T08:50:32.719Z,1756.00
2022-10-05T08:51:32.727Z,2284.00
2022-10-05T08:52:32.684Z,2260.00
2022-10-05T08:53:32.675Z,1456.00
2022-10-05T08:54:32.692Z,1648.00
2022-10-05T08:55:32.648Z,2176.00
2022-10-05T08:56:32.667Z,1476.00
2022-10-05T08:57:32.643Z,1384.00
2022-10-05T08:58:32.623Z,1540.00
2022-10-05T08:59:32.615Z,1408.00
2022-10-05T09:00:32.601Z,1264.00
2022-10-05T09:01:32.610Z,1840.00
2022-10-05T09:02:32.662Z,1816.00
2022-10-05T09:03:34.569Z,1188.00
2022-10-05T09:04:32.580Z,1208.00
2022-10-05T09:05:32.553Z,1800.00
2022-10-05T09:06:32.529Z,1756.00
2022-10-05T09:07:35.501Z,1736.00
2022-10-05T09:08:32.492Z,1716.00
2022-10-05T09:09:32.549Z,1668.00
2022-10-05T09:10:32.483Z,1640.00
2022-10-05T09:11:32.470Z,1644.00
2022-10-05T09:12:32.450Z,1624.00
2022-10-05T09:13:32.464Z,1620.00
2022-10-05T09:14:32.449Z,1616.00
2022-10-05T09:15:32.437Z,1592.00
2022-10-05T09:16:32.400Z,1568.00
2022-10-05T09:17:35.900Z,1548.00
2022-10-05T09:18:33.467Z,1540.00
2022-10-05T09:19:32.381Z,1516.00
2022-10-05T09:20:32.366Z,1512.00
2022-10-05T09:21:32.338Z,1492.00
2022-10-05T09:22:32.373Z,1496.00
2022-10-05T09:23:32.412Z,1480.00
2022-10-05T09:24:32.330Z,1460.00
2022-10-05T09:25:32.304Z,1436.00
2022-10-05T09:26:32.303Z,1436.00
2022-10-05T09:27:32.298Z,1424.00
2022-10-05T09:28:32.437Z,1408.00
2022-10-05T09:29:32.241Z,1388.00
2022-10-05T09:30:32.295Z,1392.00
2022-10-05T09:31:32.308Z,1364.00
2022-10-05T09:32:32.224Z,1372.00
2022-10-05T09:33:32.235Z,1352.00
2022-10-05T09:34:32.269Z,1360.00
2022-10-05T09:35:32.183Z,1364.00
2022-10-05T09:36:32.174Z,1344.00
2022-10-05T09:37:32.166Z,1328.00
2022-10-05T09:38:32.161Z,1336.00
2022-10-05T09:39:32.162Z,1336.00
2022-10-05T09:40:32.125Z,1300.00
2022-10-05T09:41:32.114Z,1284.00
2022-10-05T09:42:32.103Z,1292.00
2022-10-05T09:43:32.093Z,1256.00
2022-10-05T09:44:32.107Z,1260.00
2022-10-05T09:45:32.075Z,1268.00
2022-10-05T09:46:32.118Z,1244.00
2022-10-05T09:47:32.059Z,1216.00
2022-10-05T09:48:32.028Z,1236.00
2022-10-05T09:49:32.036Z,1212.00
2022-10-05T09:50:32.040Z,1184.00
2022-10-05T09:51:32.019Z,1104.00
2022-10-05T09:52:31.990Z,1200.00
2022-10-05T09:53:31.976Z,1172.00
2022-10-05T09:54:31.973Z,1156.00
2022-10-05T09:55:31.990Z,1152.00
2022-10-05T09:56:32.000Z,1156.00
2022-10-05T09:57:31.931Z,1148.00
2022-10-05T09:58:31.926Z,1124.00
2022-10-05T09:59:31.920Z,1044.00
2022-10-05T10:00:31.934Z,1112.00
2022-10-05T10:01:34.245Z,1100.00
2022-10-05T10:02:32.009Z,1044.00
2022-10-05T10:03:31.899Z,1044.00
2022-10-05T10:04:31.873Z,1000.00
2022-10-05T10:05:31.854Z,1036.00
2022-10-05T10:06:31.835Z,1036.00
2022-10-05T10:07:31.821Z,1016.00
2022-10-05T10:08:31.810Z,1028.00
2022-10-05T10:09:35.198Z,1008.00
2022-10-05T10:10:31.787Z,1020.00
2022-10-05T10:11:31.794Z,984.00
2022-10-05T10:12:31.785Z,992.00
2022-10-05T10:13:31.753Z,1020.00
2022-10-05T10:14:31.740Z,956.00
2022-10-05T10:15:31.791Z,972.00
2022-10-05T10:16:31.749Z,940.00
2022-10-05T10:17:31.719Z,940.00
2022-10-05T10:18:31.720Z,936.00
2022-10-05T10:19:31.713Z,904.00
2022-10-05T10:20:31.674Z,908.00
2022-10-05T10:21:31.687Z,924.00
2022-10-05T10:22:31.667Z,904.00
2022-10-05T10:23:31.646Z,908.00
2022-10-05T10:24:31.677Z,896.00
2022-10-05T10:25:31.606Z,884.00
2022-10-05T10:26:31.621Z,876.00
2022-10-05T10:27:31.593Z,864.00
2022-10-05T10:28:31.606Z,848.00
2022-10-05T10:29:31.596Z,864.00
2022-10-05T10:30:33.172Z,852.00
2022-10-05T10:31:31.620Z,840.00
2022-10-05T10:32:31.555Z,836.00
2022-10-05T10:33:31.514Z,828.00
2022-10-05T10:34:31.526Z,804.00
2022-10-05T10:35:31.604Z,820.00
2022-10-05T10:36:31.509Z,828.00
2022-10-05T10:37:31.493Z,824.00
2022-10-05T10:38:31.473Z,816.00
2022-10-05T10:39:31.455Z,808.00
2022-10-05T10:40:31.458Z,792.00
2022-10-05T10:41:31.437Z,780.00
2022-10-05T10:42:31.477Z,772.00
2022-10-05T10:43:31.406Z,776.00
2022-10-05T10:44:31.394Z,776.00
2022-10-05T10:45:31.390Z,744.00
2022-10-05T10:46:31.424Z,776.00
2022-10-05T10:47:31.351Z,768.00
2022-10-05T10:48:31.354Z,692.00
2022-10-05T10:49:31.342Z,740.00
2022-10-05T10:50:31.324Z,748.00
2022-10-05T10:51:31.299Z,748.00
2022-10-05T10:52:31.289Z,744.00
2022-10-05T10:53:31.299Z,736.00
2022-10-05T10:54:31.258Z,728.00
2022-10-05T10:55:31.263Z,724.00
2022-10-05T10:56:31.271Z,716.00
2022-10-05T10:57:31.251Z,724.00
2022-10-05T10:59:31.846Z,708.00
2022-10-05T11:00:31.248Z,704.00
2022-10-05T11:01:31.246Z,740.00
2022-10-05T11:02:31.336Z,696.00
2022-10-05T11:03:31.180Z,524.00
2022-10-05T11:04:31.200Z,640.00
2022-10-05T11:05:31.199Z,684.00
2022-10-05T11:06:31.146Z,688.00
2022-10-05T11:07:31.128Z,688.00
2022-10-05T11:08:31.158Z,700.00
2022-10-05T11:09:31.110Z,684.00
2022-10-05T11:10:31.100Z,680.00
2022-10-05T11:11:31.225Z,668.00
2022-10-05T11:12:34.562Z,664.00
2022-10-05T11:13:31.061Z,672.00
2022-10-05T11:14:31.090Z,672.00
2022-10-05T11:15:31.057Z,672.00
2022-10-05T11:16:31.040Z,664.00
2022-10-05T11:17:31.015Z,664.00
2022-10-05T11:18:31.031Z,668.00
2022-10-05T11:19:40.442Z,660.00
2022-10-05T11:20:31.973Z,664.00
2022-10-05T11:21:30.990Z,672.00
2022-10-05T11:22:30.957Z,656.00
2022-10-05T11:23:34.164Z,664.00
2022-10-05T11:24:31.963Z,660.00
2022-10-05T11:25:30.927Z,664.00
2022-10-05T11:26:31.034Z,664.00
2022-10-05T11:27:30.915Z,660.00
2022-10-05T11:28:30.931Z,656.00
2022-10-05T11:29:30.875Z,652.00
2022-10-05T11:30:30.892Z,652.00
2022-10-05T11:31:30.928Z,616.00
2022-10-05T11:32:30.821Z,648.00
2022-10-05T11:33:30.823Z,636.00
2022-10-05T11:34:30.824Z,644.00
2022-10-05T11:35:30.805Z,632.00
2022-10-05T11:36:30.825Z,644.00
2022-10-05T11:37:30.805Z,640.00
2022-10-05T11:38:30.799Z,644.00
2022-10-05T11:39:30.754Z,640.00
2022-10-05T11:40:30.750Z,636.00
2022-10-05T11:41:30.768Z,636.00
2022-10-05T11:42:30.731Z,636.00
2022-10-05T11:43:30.728Z,640.00
2022-10-05T11:44:30.706Z,640.00
2022-10-05T11:45:30.778Z,632.00
2022-10-05T11:46:30.774Z,632.00
2022-10-05T11:47:30.684Z,624.00
2022-10-05T11:48:30.687Z,620.00
2022-10-05T11:49:30.637Z,616.00
2022-10-05T11:50:30.645Z,632.00
2022-10-05T11:51:30.623Z,632.00
2022-10-05T11:52:30.638Z,628.00
2022-10-05T11:53:30.618Z,644.00
2022-10-05T11:54:32.510Z,632.00
2022-10-05T11:55:31.597Z,616.00
2022-10-05T11:57:30.609Z,628.00
2022-10-05T11:58:30.532Z,616.00
2022-10-05T11:59:30.549Z,616.00
2022-10-05T12:00:30.560Z,628.00
2022-10-05T12:01:30.513Z,624.00
2022-10-05T12:02:30.521Z,628.00
2022-10-05T12:03:30.572Z,628.00
2022-10-05T12:04:30.495Z,624.00
2022-10-05T12:05:30.460Z,628.00
2022-10-05T12:06:30.460Z,632.00
2022-10-05T12:07:30.446Z,628.00
2022-10-05T12:08:30.467Z,624.00
2022-10-05T12:09:30.409Z,628.00
2022-10-05T12:10:30.460Z,632.00
2022-10-05T12:11:30.413Z,624.00
2022-10-05T12:12:30.377Z,640.00
2022-10-05T12:13:30.388Z,628.00
2022-10-05T12:14:30.367Z,636.00
2022-10-05T12:15:30.371Z,620.00
2022-10-05T12:16:30.344Z,620.00
2022-10-05T12:17:30.344Z,636.00
2022-10-05T12:18:30.404Z,628.00
2022-10-05T12:19:30.311Z,620.00
2022-10-05T12:20:30.327Z,612.00
2022-10-05T12:21:30.269Z,628.00
2022-10-05T12:22:30.291Z,632.00
2022-10-05T12:23:30.288Z,628.00
2022-10-05T12:24:30.245Z,628.00
2022-10-05T12:25:30.240Z,628.00
2022-10-05T12:26:30.242Z,628.00
2022-10-05T12:27:30.285Z,620.00
2022-10-05T12:28:30.256Z,620.00
2022-10-05T12:29:30.249Z,628.00
2022-10-05T12:30:30.223Z,632.00
2022-10-05T12:31:30.215Z,628.00
2022-10-05T12:32:30.157Z,628.00
2022-10-05T12:33:30.179Z,628.00
2022-10-05T12:34:30.182Z,624.00
2022-10-05T12:35:47.370Z,628.00
2022-10-05T12:36:46.280Z,624.00
2022-10-05T12:37:31.101Z,628.00
2022-10-05T12:38:30.088Z,616.00
2022-10-05T12:39:30.139Z,616.00
2022-10-05T12:40:30.054Z,636.00
2022-10-05T12:41:30.067Z,620.00
2022-10-05T12:42:30.037Z,612.00
2022-10-05T12:43:30.103Z,620.00
2022-10-05T12:44:30.007Z,616.00